Time;durP1;ratioP1;P1;durP2;ratioP2;P2;SDS_P1;SDS_P2;PMS_P1;PMS_P2;Temp;Humidity;BMP_temperature;BMP_pressure;BME280_temperature;BME280_humidity;BME280_pressure;Samples;Min_cycle;Max_cycle;Signal;HPM_P1;HPM_P2
2019/06/22 00:01:35;;;;;;;2.27;1.83;;;;;;;22.20;56.71;100819.58;;;;-47
2019/06/22 00:04:36;;;;;;;2.05;1.85;;;;;;;22.20;56.66;100819.34;;;;-47
2019/06/22 00:07:35;;;;;;;2.19;1.84;;;;;;;22.20;56.70;100824.53;;;;-47
2019/06/22 00:10:35;;;;;;;2.34;2.07;;;;;;;22.20;56.69;100825.53;;;;-47
2019/06/22 00:13:36;;;;;;;2.16;1.90;;;;;;;22.19;56.66;100824.02;;;;-47
2019/06/22 00:16:35;;;;;;;1.99;1.87;;;;;;;22.19;56.69;100827.22;;;;-47
2019/06/22 00:19:35;;;;;;;2.07;1.96;;;;;;;22.19;56.66;100834.85;;;;-50
2019/06/22 00:22:36;;;;;;;1.92;1.70;;;;;;;22.18;56.64;100835.42;;;;-50
2019/06/22 00:25:36;;;;;;;2.19;1.90;;;;;;;22.18;56.64;100838.78;;;;-51
2019/06/22 00:28:35;;;;;;;2.53;1.83;;;;;;;22.19;56.62;100834.64;;;;-51
2019/06/22 00:31:35;;;;;;;2.33;1.84;;;;;;;22.17;56.68;100830.16;;;;-51
2019/06/22 00:34:35;;;;;;;2.64;1.99;;;;;;;22.18;56.62;100831.92;;;;-51
2019/06/22 00:37:35;;;;;;;2.15;1.95;;;;;;;22.17;56.68;100830.80;;;;-51
2019/06/22 00:40:35;;;;;;;2.10;1.90;;;;;;;22.17;56.63;100827.84;;;;-51
2019/06/22 00:43:35;;;;;;;2.16;1.96;;;;;;;22.16;56.66;100826.59;;;;-50
2019/06/22 00:46:35;;;;;;;2.46;2.03;;;;;;;22.16;56.66;100824.91;;;;-51
2019/06/22 00:49:35;;;;;;;2.24;1.78;;;;;;;22.16;56.64;100825.81;;;;-51
2019/06/22 00:52:35;;;;;;;2.22;1.88;;;;;;;22.16;56.61;100820.16;;;;-50
2019/06/22 00:55:36;;;;;;;2.13;1.79;;;;;;;22.15;56.62;100823.69;;;;-51
2019/06/22 00:58:35;;;;;;;1.94;1.70;;;;;;;22.15;56.64;100819.62;;;;-59
2019/06/22 01:01:35;;;;;;;2.01;1.89;;;;;;;22.15;56.63;100818.04;;;;-59
2019/06/22 01:04:36;;;;;;;2.21;1.93;;;;;;;22.14;56.63;100812.18;;;;-59
2019/06/22 01:07:35;;;;;;;2.22;2.02;;;;;;;22.14;56.60;100813.56;;;;-58
2019/06/22 01:10:36;;;;;;;1.98;1.81;;;;;;;22.13;56.65;100808.77;;;;-59
2019/06/22 01:13:36;;;;;;;2.01;1.90;;;;;;;22.14;56.57;100809.48;;;;-59
2019/06/22 01:16:35;;;;;;;1.99;1.87;;;;;;;22.13;56.58;100806.35;;;;-59
2019/06/22 01:19:35;;;;;;;1.99;1.79;;;;;;;22.13;56.65;100801.03;;;;-59
2019/06/22 01:22:35;;;;;;;2.03;1.85;;;;;;;22.12;56.61;100796.16;;;;-59
2019/06/22 01:25:36;;;;;;;2.83;1.87;;;;;;;22.12;56.61;100798.41;;;;-59
2019/06/22 01:28:35;;;;;;;1.99;1.89;;;;;;;22.12;56.65;100791.84;;;;-59
2019/06/22 01:31:36;;;;;;;2.08;1.89;;;;;;;22.12;56.61;100791.84;;;;-58
2019/06/22 01:34:35;;;;;;;1.98;1.79;;;;;;;22.12;56.61;100785.12;;;;-59
2019/06/22 01:37:35;;;;;;;2.82;1.92;;;;;;;22.12;56.59;100782.26;;;;-47
2019/06/22 01:40:35;;;;;;;2.31;1.80;;;;;;;22.11;56.60;100776.23;;;;-47
2019/06/22 01:43:35;;;;;;;2.07;1.87;;;;;;;22.11;56.59;100773.88;;;;-47
2019/06/22 01:46:35;;;;;;;2.11;1.91;;;;;;;22.10;56.51;100770.17;;;;-50
2019/06/22 01:49:35;;;;;;;1.81;1.71;;;;;;;22.10;56.56;100773.70;;;;-50
2019/06/22 01:52:36;;;;;;;2.83;1.86;;;;;;;22.10;56.60;100776.56;;;;-51
2019/06/22 01:55:35;;;;;;;1.89;1.75;;;;;;;22.10;56.60;100767.95;;;;-51
2019/06/22 01:58:36;;;;;;;2.23;1.88;;;;;;;22.10;56.52;100770.23;;;;-51
2019/06/22 02:01:35;;;;;;;1.97;1.85;;;;;;;22.10;56.59;100771.92;;;;-47
2019/06/22 02:04:35;;;;;;;2.15;1.95;;;;;;;22.09;56.53;100771.71;;;;-47
2019/06/22 02:07:35;;;;;;;1.97;1.85;;;;;;;22.09;56.57;100773.39;;;;-47
2019/06/22 02:10:35;;;;;;;2.30;1.91;;;;;;;22.08;56.61;100770.50;;;;-47
2019/06/22 02:13:35;;;;;;;2.03;1.90;;;;;;;22.08;56.51;100775.98;;;;-59
2019/06/22 02:16:35;;;;;;;2.60;1.80;;;;;;;22.08;56.57;100775.71;;;;-58
2019/06/22 02:19:36;;;;;;;1.88;1.78;;;;;;;22.08;56.58;100780.92;;;;-59
2019/06/22 02:22:35;;;;;;;1.95;1.75;;;;;;;22.08;56.52;100783.95;;;;-51
2019/06/22 02:25:35;;;;;;;3.03;1.88;;;;;;;22.07;56.55;100782.63;;;;-51
2019/06/22 02:28:35;;;;;;;2.00;1.80;;;;;;;22.07;56.57;100782.06;;;;-51
2019/06/22 02:31:35;;;;;;;1.79;1.69;;;;;;;22.07;56.49;100783.64;;;;-51
2019/06/22 02:34:35;;;;;;;2.09;1.80;;;;;;;22.06;56.57;100781.28;;;;-59
2019/06/22 02:37:35;;;;;;;2.17;1.97;;;;;;;22.06;56.54;100781.78;;;;-58
2019/06/22 02:40:35;;;;;;;1.90;1.79;;;;;;;22.06;56.58;100783.30;;;;-47
2019/06/22 02:43:35;;;;;;;1.99;1.84;;;;;;;22.06;56.57;100782.19;;;;-51
2019/06/22 02:46:35;;;;;;;1.95;1.79;;;;;;;22.06;56.59;100783.03;;;;-47
2019/06/22 02:49:35;;;;;;;2.29;1.71;;;;;;;22.06;56.50;100782.53;;;;-47
2019/06/22 02:52:35;;;;;;;2.15;1.90;;;;;;;22.05;56.54;100781.08;;;;-51
2019/06/22 02:55:35;;;;;;;2.02;1.82;;;;;;;22.05;56.50;100779.56;;;;-50
2019/06/22 02:58:35;;;;;;;1.93;1.83;;;;;;;22.05;56.53;100775.02;;;;-51
2019/06/22 03:01:36;;;;;;;1.94;1.77;;;;;;;22.05;56.54;100771.32;;;;-52
2019/06/22 03:04:36;;;;;;;2.05;1.90;;;;;;;22.04;56.54;100763.78;;;;-59
2019/06/22 03:07:35;;;;;;;1.93;1.79;;;;;;;22.04;56.54;100756.38;;;;-59
2019/06/22 03:10:36;;;;;;;1.79;1.69;;;;;;;22.04;56.48;100750.99;;;;-59
2019/06/22 03:13:35;;;;;;;1.80;1.70;;;;;;;22.04;56.46;100752.23;;;;-59
2019/06/22 03:16:35;;;;;;;2.05;1.85;;;;;;;22.03;56.49;100750.62;;;;-58
2019/06/22 03:19:35;;;;;;;2.15;1.95;;;;;;;22.02;56.47;100747.22;;;;-59
2019/06/22 03:22:36;;;;;;;1.84;1.71;;;;;;;22.02;56.51;100750.25;;;;-59
2019/06/22 03:25:35;;;;;;;1.81;1.70;;;;;;;22.02;56.45;100749.07;;;;-59
2019/06/22 03:28:35;;;;;;;2.17;1.97;;;;;;;22.03;56.47;100747.16;;;;-59
2019/06/22 03:31:35;;;;;;;2.14;1.90;;;;;;;22.02;56.45;100740.92;;;;-58
2019/06/22 03:34:35;;;;;;;1.80;1.70;;;;;;;22.03;56.47;100740.59;;;;-51
2019/06/22 03:37:35;;;;;;;1.97;1.81;;;;;;;22.02;56.44;100745.03;;;;-51
2019/06/22 03:40:36;;;;;;;1.83;1.73;;;;;;;22.01;56.49;100743.81;;;;-51
2019/06/22 03:43:36;;;;;;;2.01;1.85;;;;;;;22.01;56.47;100741.19;;;;-51
2019/06/22 03:46:35;;;;;;;2.02;1.85;;;;;;;22.00;56.49;100738.06;;;;-51
2019/06/22 03:49:36;;;;;;;1.80;1.70;;;;;;;22.01;56.44;100737.52;;;;-51
2019/06/22 03:52:35;;;;;;;1.86;1.72;;;;;;;22.00;56.46;100739.84;;;;-51
2019/06/22 03:55:36;;;;;;;1.87;1.77;;;;;;;22.00;56.43;100734.36;;;;-51
2019/06/22 03:58:36;;;;;;;2.35;1.86;;;;;;;22.00;56.41;100730.22;;;;-51
2019/06/22 04:01:35;;;;;;;1.91;1.81;;;;;;;22.00;56.40;100728.87;;;;-51
2019/06/22 04:04:35;;;;;;;2.09;1.90;;;;;;;22.00;56.37;100734.09;;;;-51
2019/06/22 04:07:37;;;;;;;1.91;1.81;;;;;;;21.99;56.40;100734.72;;;;-51
2019/06/22 04:10:35;;;;;;;2.07;1.80;;;;;;;22.00;56.38;100737.78;;;;-51
2019/06/22 04:13:35;;;;;;;2.04;1.84;;;;;;;21.98;56.35;100733.55;;;;-50
2019/06/22 04:16:36;;;;;;;2.01;1.81;;;;;;;21.99;56.36;100733.81;;;;-51
2019/06/22 04:19:35;;;;;;;1.93;1.79;;;;;;;21.99;56.43;100733.55;;;;-50
2019/06/22 04:22:35;;;;;;;1.85;1.75;;;;;;;21.99;56.44;100738.86;;;;-51
2019/06/22 04:25:35;;;;;;;1.78;1.67;;;;;;;21.98;56.39;100736.91;;;;-51
2019/06/22 04:28:35;;;;;;;1.92;1.80;;;;;;;21.98;56.34;100737.18;;;;-51
2019/06/22 04:31:36;;;;;;;1.77;1.67;;;;;;;21.98;56.42;100733.84;;;;-50
2019/06/22 04:34:36;;;;;;;1.97;1.77;;;;;;;21.98;56.43;100729.97;;;;-51
2019/06/22 04:37:36;;;;;;;1.95;1.85;;;;;;;21.97;56.42;100728.63;;;;-51
2019/06/22 04:40:35;;;;;;;2.37;1.82;;;;;;;21.97;56.39;100724.99;;;;-50
2019/06/22 04:43:35;;;;;;;1.83;1.73;;;;;;;21.96;56.43;100716.98;;;;-51
2019/06/22 04:46:35;;;;;;;2.07;1.85;;;;;;;21.97;56.36;100725.50;;;;-51
2019/06/22 04:49:35;;;;;;;1.78;1.67;;;;;;;21.96;56.34;100726.73;;;;-51
2019/06/22 04:52:35;;;;;;;1.79;1.69;;;;;;;21.97;56.34;100728.86;;;;-51
2019/06/22 04:55:36;;;;;;;1.70;1.60;;;;;;;21.96;56.39;100731.02;;;;-51
2019/06/22 04:58:36;;;;;;;1.88;1.78;;;;;;;21.96;56.35;100732.22;;;;-51
2019/06/22 05:01:35;;;;;;;2.04;1.80;;;;;;;21.96;56.40;100731.34;;;;-51
2019/06/22 05:04:35;;;;;;;1.75;1.65;;;;;;;21.96;56.45;100732.12;;;;-51
2019/06/22 05:07:35;;;;;;;1.85;1.75;;;;;;;21.96;56.36;100734.44;;;;-51
2019/06/22 05:10:35;;;;;;;1.88;1.78;;;;;;;21.96;56.45;100734.27;;;;-51
2019/06/22 05:13:35;;;;;;;2.23;1.73;;;;;;;21.96;56.45;100736.22;;;;-51
2019/06/22 05:16:35;;;;;;;1.99;1.89;;;;;;;21.95;56.45;100730.16;;;;-51
2019/06/22 05:19:36;;;;;;;1.83;1.73;;;;;;;21.95;56.44;100733.33;;;;-51
2019/06/22 05:22:35;;;;;;;5.61;3.80;;;;;;;21.71;52.24;100736.34;;;;-51
2019/06/22 05:25:35;;;;;;;4.25;3.90;;;;;;;21.48;51.55;100736.27;;;;-51
2019/06/22 05:28:35;;;;;;;5.20;4.45;;;;;;;21.35;52.26;100742.62;;;;-51
2019/06/22 05:31:35;;;;;;;4.99;4.34;;;;;;;21.23;51.39;100739.13;;;;-51
2019/06/22 05:34:35;;;;;;;4.90;4.37;;;;;;;21.19;52.21;100743.16;;;;-51
2019/06/22 05:37:36;;;;;;;4.78;4.29;;;;;;;21.11;51.93;100739.73;;;;-51
2019/06/22 05:40:35;;;;;;;5.93;4.43;;;;;;;21.02;52.15;100738.28;;;;-51
2019/06/22 05:43:35;;;;;;;5.00;4.21;;;;;;;20.99;52.76;100739.39;;;;-51
2019/06/22 05:46:36;;;;;;;4.79;4.31;;;;;;;20.97;52.97;100736.62;;;;-51
2019/06/22 05:49:36;;;;;;;5.36;4.51;;;;;;;20.98;52.97;100735.38;;;;-51
2019/06/22 05:52:35;;;;;;;5.74;4.63;;;;;;;21.02;52.66;100733.58;;;;-51
2019/06/22 05:55:35;;;;;;;6.22;4.75;;;;;;;20.96;53.36;100731.87;;;;-51
2019/06/22 05:58:35;;;;;;;5.75;4.55;;;;;;;20.99;53.72;100737.88;;;;-58
2019/06/22 06:01:35;;;;;;;5.03;4.49;;;;;;;20.99;53.99;100736.88;;;;-58
2019/06/22 06:04:35;;;;;;;5.64;4.75;;;;;;;21.01;54.11;100731.08;;;;-51
2019/06/22 06:07:36;;;;;;;6.19;4.67;;;;;;;21.03;53.53;100730.77;;;;-51
2019/06/22 06:10:37;;;;;;;8.95;4.61;;;;;;;21.08;53.62;100728.59;;;;-51
2019/06/22 06:13:36;;;;;;;6.41;4.36;;;;;;;21.14;54.02;100732.14;;;;-51
2019/06/22 06:16:49;;;;;;;4.91;4.20;;;;;;;21.19;54.11;100731.74;;;;-51
2019/06/22 06:19:35;;;;;;;5.55;4.29;;;;;;;21.24;53.96;100723.62;;;;-47
2019/06/22 06:22:35;;;;;;;6.15;4.53;;;;;;;21.28;54.03;100719.35;;;;-58
2019/06/22 06:25:36;;;;;;;5.19;4.00;;;;;;;21.31;54.08;100719.81;;;;-58
2019/06/22 06:28:35;;;;;;;4.63;3.99;;;;;;;21.35;54.08;100723.47;;;;-59
2019/06/22 06:31:36;;;;;;;6.47;4.07;;;;;;;21.38;54.18;100725.84;;;;-51
2019/06/22 06:34:36;;;;;;;4.91;3.84;;;;;;;21.40;54.21;100720.55;;;;-51
2019/06/22 06:37:35;;;;;;;4.84;4.01;;;;;;;21.42;54.26;100722.67;;;;-51
2019/06/22 06:40:35;;;;;;;4.59;3.95;;;;;;;21.44;54.26;100724.51;;;;-51
2019/06/22 06:43:35;;;;;;;4.29;3.89;;;;;;;21.45;54.32;100723.88;;;;-51
2019/06/22 06:46:35;;;;;;;4.29;3.93;;;;;;;21.46;54.36;100717.03;;;;-51
2019/06/22 06:49:35;;;;;;;4.04;3.64;;;;;;;21.48;54.39;100719.02;;;;-51
2019/06/22 06:52:36;;;;;;;3.99;3.57;;;;;;;21.48;54.41;100716.10;;;;-51
2019/06/22 06:55:35;;;;;;;4.03;3.69;;;;;;;21.49;54.48;100719.33;;;;-51
2019/06/22 06:58:35;;;;;;;4.25;3.86;;;;;;;21.50;54.52;100719.48;;;;-51
2019/06/22 07:01:35;;;;;;;3.89;3.59;;;;;;;21.51;54.54;100716.33;;;;-51
2019/06/22 07:04:35;;;;;;;4.12;3.72;;;;;;;21.52;54.58;100715.48;;;;-58
2019/06/22 07:07:36;;;;;;;3.73;3.40;;;;;;;21.54;54.57;100720.20;;;;-47
2019/06/22 07:10:35;;;;;;;3.95;3.61;;;;;;;21.53;54.60;100717.38;;;;-46
2019/06/22 07:13:36;;;;;;;3.99;3.69;;;;;;;21.54;54.59;100715.17;;;;-47
2019/06/22 07:16:35;;;;;;;4.03;3.65;;;;;;;21.56;54.60;100715.75;;;;-47
2019/06/22 07:19:35;;;;;;;4.03;3.73;;;;;;;21.57;54.64;100716.80;;;;-47
2019/06/22 07:22:35;;;;;;;3.84;3.54;;;;;;;21.57;54.64;100714.17;;;;-51
2019/06/22 07:25:35;;;;;;;4.28;3.85;;;;;;;21.57;54.68;100703.35;;;;-58
2019/06/22 07:28:36;;;;;;;3.82;3.52;;;;;;;21.58;54.74;100703.39;;;;-58
2019/06/22 07:31:36;;;;;;;3.81;3.51;;;;;;;21.59;54.70;100701.17;;;;-58
2019/06/22 07:34:36;;;;;;;4.37;3.63;;;;;;;21.58;54.72;100696.47;;;;-59
2019/06/22 07:37:35;;;;;;;4.00;3.61;;;;;;;21.60;54.76;100689.69;;;;-58
2019/06/22 07:40:35;;;;;;;4.17;3.46;;;;;;;21.60;54.77;100679.27;;;;-58
2019/06/22 07:43:35;;;;;;;4.11;3.66;;;;;;;21.60;54.80;100679.64;;;;-47
2019/06/22 07:46:35;;;;;;;4.50;3.67;;;;;;;21.61;54.77;100679.24;;;;-48
2019/06/22 07:49:36;;;;;;;4.15;3.73;;;;;;;21.61;54.77;100677.59;;;;-51
2019/06/22 07:52:36;;;;;;;3.80;3.50;;;;;;;21.62;54.84;100682.81;;;;-51
2019/06/22 07:55:35;;;;;;;3.83;3.53;;;;;;;21.62;54.83;100686.67;;;;-51
2019/06/22 07:58:35;;;;;;;3.77;3.47;;;;;;;21.63;54.91;100689.61;;;;-51
2019/06/22 08:01:35;;;;;;;3.70;3.37;;;;;;;21.63;54.90;100692.27;;;;-51
2019/06/22 08:04:35;;;;;;;3.73;3.43;;;;;;;21.63;54.89;100692.30;;;;-51
2019/06/22 08:07:36;;;;;;;3.59;3.29;;;;;;;21.64;54.94;100697.91;;;;-51
2019/06/22 08:10:35;;;;;;;3.68;3.38;;;;;;;21.65;54.94;100696.64;;;;-47
2019/06/22 08:13:35;;;;;;;3.79;3.41;;;;;;;21.66;54.97;100699.34;;;;-47
2019/06/22 08:16:35;;;;;;;3.50;3.20;;;;;;;21.66;54.95;100698.59;;;;-48
2019/06/22 08:19:35;;;;;;;4.21;3.50;;;;;;;21.66;54.94;100694.23;;;;-48
2019/06/22 08:22:35;;;;;;;3.95;3.51;;;;;;;21.65;55.01;100693.05;;;;-47
2019/06/22 08:25:35;;;;;;;3.62;3.32;;;;;;;21.67;54.99;100691.98;;;;-47
2019/06/22 08:28:35;;;;;;;3.67;3.37;;;;;;;21.66;54.99;100684.58;;;;-47
2019/06/22 08:31:35;;;;;;;3.50;3.20;;;;;;;21.66;54.98;100672.24;;;;-47
2019/06/22 08:34:35;;;;;;;3.59;3.29;;;;;;;21.67;55.01;100669.05;;;;-47
2019/06/22 08:37:36;;;;;;;3.53;3.23;;;;;;;21.67;55.01;100666.20;;;;-47
2019/06/22 08:40:35;;;;;;;5.53;3.55;;;;;;;21.68;55.25;100664.63;;;;-49
2019/06/22 08:43:36;;;;;;;6.33;3.27;;;;;;;21.69;55.40;100669.64;;;;-49
2019/06/22 08:46:36;;;;;;;3.68;3.35;;;;;;;21.71;55.42;100665.84;;;;-47
2019/06/22 08:49:35;;;;;;;4.06;3.27;;;;;;;21.72;55.44;100667.00;;;;-47
2019/06/22 08:52:35;;;;;;;3.81;3.49;;;;;;;21.75;55.41;100665.39;;;;-49
2019/06/22 08:55:36;;;;;;;3.95;3.29;;;;;;;21.76;55.48;100667.89;;;;-48
2019/06/22 08:58:36;;;;;;;14.25;3.62;;;;;;;21.80;56.02;100663.06;;;;-46
2019/06/22 09:01:36;;;;;;;7.31;3.27;;;;;;;21.81;55.93;100665.39;;;;-50
2019/06/22 09:04:36;;;;;;;9.97;3.14;;;;;;;21.84;55.94;100668.20;;;;-52
2019/06/22 09:07:36;;;;;;;7.44;3.31;;;;;;;21.88;56.14;100666.63;;;;-53
2019/06/22 09:10:35;;;;;;;14.44;3.78;;;;;;;21.90;56.70;100664.13;;;;-50
2019/06/22 09:13:36;;;;;;;10.96;4.08;;;;;;;21.93;56.88;100667.77;;;;-47
2019/06/22 09:16:36;;;;;;;8.39;3.64;;;;;;;21.94;56.47;100660.58;;;;-48
2019/06/22 09:19:36;;;;;;;7.28;3.60;;;;;;;21.94;56.57;100660.34;;;;-47
2019/06/22 09:22:36;;;;;;;6.13;3.60;;;;;;;21.96;56.57;100665.32;;;;-47
2019/06/22 09:25:35;;;;;;;9.17;3.53;;;;;;;21.98;57.04;100663.98;;;;-47
2019/06/22 09:28:36;;;;;;;15.16;3.48;;;;;;;22.00;56.53;100660.63;;;;-50
2019/06/22 09:31:35;;;;;;;6.70;3.75;;;;;;;22.02;56.55;100662.95;;;;-51
2019/06/22 09:34:36;;;;;;;6.69;3.52;;;;;;;22.03;56.51;100659.62;;;;-52
2019/06/22 09:37:35;;;;;;;8.19;3.31;;;;;;;22.04;56.48;100657.14;;;;-53
2019/06/22 09:40:36;;;;;;;11.36;3.43;;;;;;;22.06;56.40;100658.46;;;;-51
2019/06/22 09:43:36;;;;;;;6.49;3.40;;;;;;;22.06;56.46;100665.30;;;;-51
2019/06/22 09:46:36;;;;;;;10.13;3.49;;;;;;;22.09;56.72;100662.38;;;;-64
2019/06/22 09:49:35;;;;;;;11.04;3.53;;;;;;;22.09;56.40;100660.02;;;;-60
2019/06/22 09:52:35;;;;;;;6.22;3.39;;;;;;;22.10;56.37;100659.12;;;;-64
2019/06/22 09:55:35;;;;;;;6.93;3.59;;;;;;;22.11;56.36;100653.44;;;;-63
2019/06/22 09:58:35;;;;;;;7.36;3.59;;;;;;;22.12;56.43;100653.07;;;;-53
2019/06/22 10:01:36;;;;;;;5.73;3.30;;;;;;;22.13;56.29;100652.27;;;;-52
2019/06/22 10:04:36;;;;;;;5.54;3.64;;;;;;;22.13;56.17;100646.87;;;;-52
2019/06/22 10:07:35;;;;;;;4.47;3.20;;;;;;;22.13;56.23;100645.70;;;;-61
2019/06/22 10:10:36;;;;;;;4.96;3.35;;;;;;;22.14;56.31;100644.63;;;;-56
2019/06/22 10:13:35;;;;;;;12.97;3.39;;;;;;;22.14;56.29;100642.14;;;;-57
2019/06/22 10:16:35;;;;;;;4.53;3.39;;;;;;;22.16;56.28;100646.45;;;;-63
2019/06/22 10:19:36;;;;;;;5.66;3.31;;;;;;;22.16;56.25;100644.53;;;;-59
2019/06/22 10:22:36;;;;;;;3.85;3.20;;;;;;;22.17;56.35;100632.45;;;;-61
2019/06/22 10:25:36;;;;;;;5.08;3.45;;;;;;;22.18;56.28;100633.57;;;;-60
2019/06/22 10:28:35;;;;;;;5.34;3.12;;;;;;;22.19;56.31;100635.62;;;;-57
2019/06/22 10:31:35;;;;;;;3.63;3.19;;;;;;;22.19;56.22;100630.78;;;;-52
2019/06/22 10:34:36;;;;;;;3.89;3.33;;;;;;;22.20;56.35;100624.42;;;;-52
2019/06/22 10:37:35;;;;;;;6.08;3.23;;;;;;;22.22;56.14;100625.47;;;;-52
2019/06/22 10:40:36;;;;;;;8.34;3.45;;;;;;;22.19;56.13;100627.25;;;;-51
2019/06/22 10:43:36;;;;;;;5.32;3.33;;;;;;;22.22;56.06;100626.86;;;;-50
2019/06/22 10:46:36;;;;;;;4.63;3.71;;;;;;;22.22;55.95;100622.38;;;;-51
2019/06/22 10:49:35;;;;;;;5.98;3.60;;;;;;;22.22;55.99;100623.48;;;;-51
2019/06/22 10:52:35;;;;;;;4.57;3.39;;;;;;;22.23;55.99;100623.25;;;;-52
2019/06/22 10:55:36;;;;;;;4.70;3.32;;;;;;;22.24;55.87;100621.34;;;;-53
2019/06/22 10:58:36;;;;;;;4.59;3.30;;;;;;;22.25;55.97;100621.81;;;;-50
2019/06/22 11:01:37;;;;;;;4.35;3.40;;;;;;;22.25;55.93;100613.06;;;;-46
2019/06/22 11:04:36;;;;;;;6.77;3.56;;;;;;;22.25;55.91;100609.46;;;;-47
2019/06/22 11:07:35;;;;;;;5.57;3.57;;;;;;;22.26;55.87;100609.83;;;;-50
2019/06/22 11:10:35;;;;;;;6.14;3.74;;;;;;;22.26;55.97;100605.63;;;;-47
2019/06/22 11:13:35;;;;;;;5.25;3.33;;;;;;;22.26;55.90;100599.98;;;;-51
2019/06/22 11:16:36;;;;;;;5.78;3.56;;;;;;;22.27;55.89;100599.67;;;;-49
2019/06/22 11:19:36;;;;;;;4.61;3.25;;;;;;;22.27;55.87;100596.81;;;;-49
2019/06/22 11:22:35;;;;;;;4.37;3.53;;;;;;;22.28;55.81;100587.16;;;;-64
2019/06/22 11:25:35;;;;;;;7.94;3.70;;;;;;;22.27;55.82;100582.95;;;;-61
2019/06/22 11:28:35;;;;;;;6.81;3.65;;;;;;;22.26;55.91;100571.44;;;;-53
2019/06/22 11:31:35;;;;;;;7.82;3.40;;;;;;;22.25;55.96;100566.69;;;;-53
2019/06/22 11:34:36;;;;;;;4.75;3.30;;;;;;;22.24;55.89;100562.72;;;;-49
2019/06/22 11:37:35;;;;;;;4.53;3.37;;;;;;;22.23;55.99;100560.84;;;;-52
2019/06/22 11:40:36;;;;;;;4.01;3.40;;;;;;;22.22;56.02;100561.64;;;;-53
2019/06/22 11:43:35;;;;;;;4.21;3.27;;;;;;;22.22;55.98;100562.66;;;;-53
2019/06/22 11:46:35;;;;;;;7.71;3.31;;;;;;;22.21;55.99;100557.34;;;;-53
2019/06/22 11:49:35;;;;;;;3.68;3.10;;;;;;;22.21;56.04;100552.09;;;;-53
2019/06/22 11:52:35;;;;;;;5.09;3.27;;;;;;;22.20;55.96;100550.20;;;;-53
2019/06/22 11:55:35;;;;;;;4.97;3.50;;;;;;;22.20;55.94;100546.30;;;;-53
2019/06/22 11:58:36;;;;;;;5.39;3.02;;;;;;;22.20;55.86;100544.82;;;;-53
2019/06/22 12:01:35;;;;;;;4.43;3.17;;;;;;;22.19;55.92;100537.02;;;;-53
2019/06/22 12:04:35;;;;;;;5.07;3.20;;;;;;;22.19;55.88;100533.81;;;;-54
2019/06/22 12:07:35;;;;;;;3.29;2.99;;;;;;;22.20;55.94;100530.72;;;;-53
2019/06/22 12:10:35;;;;;;;3.64;3.25;;;;;;;22.19;55.85;100528.44;;;;-53
2019/06/22 12:13:35;;;;;;;4.73;3.25;;;;;;;22.19;55.92;100519.92;;;;-52
2019/06/22 12:16:35;;;;;;;4.35;3.21;;;;;;;22.22;55.92;100520.09;;;;-55
2019/06/22 12:19:36;;;;;;;4.36;3.18;;;;;;;22.24;55.95;100526.89;;;;-63
2019/06/22 12:22:35;;;;;;;4.04;3.23;;;;;;;22.25;55.95;100519.45;;;;-62
2019/06/22 12:25:35;;;;;;;7.07;3.37;;;;;;;22.27;55.97;100518.48;;;;-56
2019/06/22 12:28:35;;;;;;;4.57;3.08;;;;;;;22.27;55.94;100514.14;;;;-58
2019/06/22 12:31:35;;;;;;;5.03;3.47;;;;;;;22.27;55.93;100514.70;;;;-59
2019/06/22 12:34:36;;;;;;;4.05;3.05;;;;;;;22.25;55.99;100502.46;;;;-58
2019/06/22 12:37:38;;;;;;;3.91;2.97;;;;;;;22.25;56.04;100499.77;;;;-58
2019/06/22 12:40:35;;;;;;;3.75;3.22;;;;;;;22.25;56.02;100490.98;;;;-52
2019/06/22 12:43:35;;;;;;;3.71;3.18;;;;;;;22.24;56.02;100496.78;;;;-58
2019/06/22 12:46:36;;;;;;;4.06;3.25;;;;;;;22.24;55.96;100498.63;;;;-58
2019/06/22 12:49:35;;;;;;;3.84;3.21;;;;;;;22.24;55.99;100500.04;;;;-58
2019/06/22 12:52:35;;;;;;;3.97;3.01;;;;;;;22.23;55.93;100503.06;;;;-58
2019/06/22 12:55:35;;;;;;;4.17;3.19;;;;;;;22.24;55.91;100502.16;;;;-49
2019/06/22 12:58:35;;;;;;;4.61;3.07;;;;;;;22.23;55.92;100501.69;;;;-49
2019/06/22 13:01:35;;;;;;;3.58;3.07;;;;;;;22.22;55.90;100499.30;;;;-49
2019/06/22 13:04:35;;;;;;;3.31;3.01;;;;;;;22.22;55.93;100500.07;;;;-50
2019/06/22 13:07:35;;;;;;;4.33;3.21;;;;;;;22.22;55.87;100502.66;;;;-49
2019/06/22 13:10:35;;;;;;;5.63;3.06;;;;;;;22.21;55.93;100497.88;;;;-49
2019/06/22 13:13:35;;;;;;;4.17;3.02;;;;;;;22.22;55.86;100496.44;;;;-49
2019/06/22 13:16:35;;;;;;;3.63;2.90;;;;;;;22.21;55.85;100495.70;;;;-49
2019/06/22 13:19:35;;;;;;;4.21;2.91;;;;;;;22.21;55.83;100493.17;;;;-49
2019/06/22 13:22:35;;;;;;;3.14;2.90;;;;;;;22.21;55.83;100494.42;;;;-49
2019/06/22 13:25:35;;;;;;;4.66;2.95;;;;;;;22.21;55.77;100496.06;;;;-49
2019/06/22 13:28:35;;;;;;;3.25;2.85;;;;;;;22.21;55.76;100497.01;;;;-49
2019/06/22 13:31:35;;;;;;;3.31;3.01;;;;;;;22.21;55.79;100500.88;;;;-49
2019/06/22 13:34:35;;;;;;;3.57;3.03;;;;;;;22.20;55.75;100510.77;;;;-49
2019/06/22 13:37:35;;;;;;;10.59;2.82;;;;;;;22.20;55.78;100511.11;;;;-49
2019/06/22 13:40:35;;;;;;;3.28;2.87;;;;;;;22.19;55.78;100515.98;;;;-49
2019/06/22 13:43:35;;;;;;;3.67;2.96;;;;;;;22.19;55.81;100521.67;;;;-49
2019/06/22 13:46:35;;;;;;;3.25;2.95;;;;;;;22.19;55.85;100524.39;;;;-49
2019/06/22 13:49:36;;;;;;;4.12;2.96;;;;;;;22.19;55.81;100524.36;;;;-49
2019/06/22 13:52:35;;;;;;;3.01;2.72;;;;;;;22.20;55.80;100523.72;;;;-49
2019/06/22 13:55:35;;;;;;;3.31;3.01;;;;;;;22.19;55.74;100522.75;;;;-49
2019/06/22 13:58:35;;;;;;;2.92;2.71;;;;;;;22.19;55.74;100522.58;;;;-58
2019/06/22 14:01:35;;;;;;;7.97;3.20;;;;;;;22.19;55.88;100519.72;;;;-58
2019/06/22 14:04:36;;;;;;;4.83;3.11;;;;;;;22.20;56.05;100520.06;;;;-62
2019/06/22 14:07:35;;;;;;;3.78;2.89;;;;;;;22.23;55.92;100520.62;;;;-60
2019/06/22 14:10:36;;;;;;;5.45;3.05;;;;;;;22.25;56.04;100523.49;;;;-54
2019/06/22 14:13:35;;;;;;;5.50;3.03;;;;;;;22.27;55.94;100519.75;;;;-52
2019/06/22 14:16:35;;;;;;;3.41;2.80;;;;;;;22.29;56.03;100518.55;;;;-53
2019/06/22 14:19:35;;;;;;;3.13;2.84;;;;;;;22.30;55.99;100519.29;;;;-56
2019/06/22 14:22:35;;;;;;;4.30;2.99;;;;;;;22.31;56.17;100520.39;;;;-52
2019/06/22 14:25:35;;;;;;;3.99;2.89;;;;;;;22.31;56.04;100510.80;;;;-53
2019/06/22 14:28:35;;;;;;;4.16;2.97;;;;;;;22.33;56.22;100509.36;;;;-52
2019/06/22 14:31:35;;;;;;;5.69;2.75;;;;;;;22.34;56.16;100509.13;;;;-54
2019/06/22 14:34:35;;;;;;;5.19;2.78;;;;;;;22.35;56.13;100509.02;;;;-53
2019/06/22 14:37:35;;;;;;;3.47;2.67;;;;;;;22.37;56.27;100513.30;;;;-53
2019/06/22 14:40:35;;;;;;;3.02;2.71;;;;;;;22.38;56.21;100515.28;;;;-52
2019/06/22 14:43:36;;;;;;;4.83;2.92;;;;;;;22.39;56.22;100518.24;;;;-53
2019/06/22 14:46:35;;;;;;;4.56;2.87;;;;;;;22.39;56.18;100518.65;;;;-51
2019/06/22 14:49:35;;;;;;;3.84;2.67;;;;;;;22.39;56.18;100521.87;;;;-52
2019/06/22 14:52:35;;;;;;;3.91;2.95;;;;;;;22.40;56.26;100523.42;;;;-55
2019/06/22 14:55:35;;;;;;;3.94;2.83;;;;;;;22.41;56.18;100525.21;;;;-51
2019/06/22 14:58:36;;;;;;;4.45;2.93;;;;;;;22.42;56.28;100527.00;;;;-53
2019/06/22 15:01:35;;;;;;;4.47;2.67;;;;;;;22.42;56.23;100521.31;;;;-52
2019/06/22 15:04:35;;;;;;;4.53;2.75;;;;;;;22.44;56.22;100516.13;;;;-52
2019/06/22 15:07:35;;;;;;;5.47;2.89;;;;;;;22.45;56.21;100512.22;;;;-54
2019/06/22 15:10:35;;;;;;;4.18;2.94;;;;;;;22.44;56.25;100508.41;;;;-53
2019/06/22 15:13:36;;;;;;;4.77;2.83;;;;;;;22.46;56.26;100513.43;;;;-54
2019/06/22 15:16:35;;;;;;;3.23;2.71;;;;;;;22.45;56.24;100515.18;;;;-51
2019/06/22 15:19:35;;;;;;;3.07;2.77;;;;;;;22.46;56.20;100514.78;;;;-52
2019/06/22 15:22:35;;;;;;;4.28;2.82;;;;;;;22.47;56.23;100512.42;;;;-51
2019/06/22 15:25:35;;;;;;;3.92;2.76;;;;;;;22.47;56.16;100516.33;;;;-52
2019/06/22 15:28:35;;;;;;;3.09;2.80;;;;;;;22.47;56.16;100553.79;;;;-52
2019/06/22 15:31:36;;;;;;;3.92;2.77;;;;;;;22.47;56.33;100567.99;;;;-53
2019/06/22 15:34:35;;;;;;;3.11;2.80;;;;;;;22.48;56.15;100575.23;;;;-52
2019/06/22 15:37:35;;;;;;;3.79;2.70;;;;;;;22.48;56.37;100581.12;;;;-54
2019/06/22 15:40:35;;;;;;;4.73;2.71;;;;;;;22.49;56.22;100588.66;;;;-53
2019/06/22 15:43:35;;;;;;;6.05;2.89;;;;;;;22.49;56.24;100592.56;;;;-53
2019/06/22 15:46:35;;;;;;;4.94;2.91;;;;;;;22.50;56.23;100588.96;;;;-53
2019/06/22 15:49:35;;;;;;;3.27;2.91;;;;;;;22.51;56.37;100584.89;;;;-53
2019/06/22 15:52:35;;;;;;;3.55;2.69;;;;;;;22.51;56.34;100584.36;;;;-52
2019/06/22 15:55:35;;;;;;;2.91;2.63;;;;;;;22.51;56.19;100581.42;;;;-54
2019/06/22 15:58:35;;;;;;;7.06;2.80;;;;;;;22.52;56.24;100581.09;;;;-52
2019/06/22 16:01:35;;;;;;;3.44;2.73;;;;;;;22.51;56.22;100591.02;;;;-53
2019/06/22 16:04:35;;;;;;;4.03;2.59;;;;;;;22.51;56.24;100586.74;;;;-53
2019/06/22 16:07:35;;;;;;;3.47;2.59;;;;;;;22.51;56.24;100580.08;;;;-55
2019/06/22 16:10:35;;;;;;;2.75;2.55;;;;;;;22.52;56.17;100580.52;;;;-51
2019/06/22 16:13:35;;;;;;;2.82;2.50;;;;;;;22.52;56.19;100580.01;;;;-50
2019/06/22 16:16:35;;;;;;;6.28;2.78;;;;;;;22.53;56.22;100579.37;;;;-50
2019/06/22 16:19:35;;;;;;;3.12;2.60;;;;;;;22.54;56.25;100578.46;;;;-51
2019/06/22 16:22:35;;;;;;;3.43;2.83;;;;;;;22.54;56.28;100589.77;;;;-57
2019/06/22 16:25:35;;;;;;;3.87;2.67;;;;;;;22.55;56.30;100587.02;;;;-53
2019/06/22 16:28:35;;;;;;;2.85;2.55;;;;;;;22.55;56.22;100596.10;;;;-48
2019/06/22 16:31:35;;;;;;;3.16;2.68;;;;;;;22.57;56.13;100597.52;;;;-48
2019/06/22 16:34:35;;;;;;;2.87;2.60;;;;;;;22.56;56.10;100587.55;;;;-49
2019/06/22 16:37:35;;;;;;;2.95;2.56;;;;;;;22.58;56.25;100590.05;;;;-50
2019/06/22 16:40:35;;;;;;;3.43;2.71;;;;;;;22.59;56.20;100595.97;;;;-48